Nearby METAR Reports - 80 Mile Radius
Meteorological Terminal Air Report (METAR)


KBWI - Balto/Wash Intl Airport, Maryland
Distance from station: S 5mi, 8km
Updated: Tue, 24-Apr-2018 1:54pm EDT
Overcast
Overcast
 Wind from ESE
Wind: ESE 13 mph , 20 km/h, Gust: 23 mph , 37 km/h
Temperature: 63°F , 17°C
Dew Point: 46°F , 8°C
Humidity: 56%
Barometer: 30.20 inHg , 1022.7 hPa
Clouds: Overcast
Visibility: 10 miles , 16 km
Cloud details: Mostly Cloudy 4300 ft
Overcast 6000 ft
2018/04/24 17:54 KBWI 241754Z 12011G20KT 10SM BKN043 OVC060 17/08 A3020 RMK AO2 PK WND 12026/1729 SLP225 T01720078 10172 20117 57025
KDMH - Baltimore/Dwntwn, Maryland
Distance from station: NE 5mi, 9km
Updated: Tue, 24-Apr-2018 1:54pm EDT

 
Temperature: 64°F , 18°C
Dew Point: 46°F , 8°C
Humidity: 52%
Barometer: 30.22 inHg , 1023.4 hPa
2018/04/24 17:54 KDMH 241754Z AUTO 18/08 A3022 RMK AO1 SLP232 T01780083 10178 20128 58025
KFME - Fort Meade/Tipton AAF, Maryland
Distance from station: SSW 11mi, 18km
Updated: Tue, 24-Apr-2018 2:15pm EDT
Mostly Cloudy
Mostly Cloudy
 Wind from ESE
Wind: ESE 17 mph , 28 km/h, Gust: 24 mph , 39 km/h
Temperature: 63°F , 17°C
Dew Point: 46°F , 8°C
Humidity: 56%
Barometer: 30.21 inHg , 1023 hPa
Clouds: Mostly Cloudy
Visibility: 10 miles , 16 km
Cloud details: Mostly Cloudy 4200 ft
Mostly Cloudy 5500 ft
Mostly Cloudy 6500 ft
2018/04/24 18:15 KFME 241815Z AUTO 11015G21KT 10SM BKN042 BKN055 BKN065 17/08 A3021 RMK AO1
 
KMTN - Balto/Martin State Airport, Maryland
Distance from station: ENE 16mi, 26km
Updated: Tue, 24-Apr-2018 1:45pm EDT
Overcast
Overcast
 Wind from E
Wind: E 13 mph , 20 km/h, Gust: 18 mph , 30 km/h
Temperature: 64°F , 18°C
Dew Point: 52°F , 11°C
Humidity: 64%
Barometer: 30.24 inHg , 1024 hPa
Clouds: Overcast
Visibility: 10 miles , 16 km
Cloud details: Mostly Cloudy 4000 ft
Overcast 4500 ft
2018/04/24 17:45 KMTN 241745Z 09011G16KT 10SM BKN040 OVC045 18/11 A3024
KCGS - College Park Airport, Maryland
Distance from station: SSW 21mi, 34km
Updated: Tue, 24-Apr-2018 2:17pm EDT
Overcast
Overcast
 Wind from SE
Wind: SE 12 mph , 19 km/h, Gust: 18 mph , 30 km/h
Temperature: 63°F , 17°C
Dew Point: 46°F , 8°C
Humidity: 56%
Barometer: 30.18 inHg , 1022 hPa
Clouds: Overcast
Visibility: 10 miles , 16 km
Cloud details: Partly Cloudy 4200 ft
Overcast 5500 ft
2018/04/24 18:17 KCGS 241817Z AUTO 14010G16KT 100V160 10SM SCT042 OVC055 17/08 A3018 RMK AO1 T01700076
KNAK - Annapolis/Naval Academy, Maryland
Distance from station: SE 21mi, 34km
Updated: Tue, 24-Apr-2018 1:54pm EDT
Mostly Cloudy
Mostly Cloudy
 Wind from ESE
Wind: ESE 15 mph , 24 km/h
Temperature: 63°F , 17°C
Dew Point: 52°F , 11°C
Humidity: 68%
Barometer: 30.20 inHg , 1022.7 hPa
Clouds: Mostly Cloudy
Visibility: 10 miles , 16 km
Cloud details: Few Clouds 4700 ft
Mostly Cloudy 7000 ft
2018/04/24 17:54 KNAK 241754Z AUTO 12013KT 10SM FEW047 BKN070 17/11 A3020 RMK AO2 SLP228 T01670106 10172 20133 58023
 
KGAI - Gaithersburg/Montgomery Co Airpark, Maryland
Distance from station: W 26mi, 41km
Updated: Tue, 24-Apr-2018 1:56pm EDT
Overcast
Overcast
 Wind from ESE
Wind: ESE 20 mph , 31 km/h, Gust: 28 mph , 44 km/h
Temperature: 61°F , 16°C
Dew Point: 46°F , 8°C
Humidity: 59%
Barometer: 30.19 inHg , 1022.4 hPa
Clouds: Overcast
Visibility: 10 miles , 16 km
Cloud details: Overcast 3800 ft
2018/04/24 17:56 KGAI 241756Z AUTO 12017G24KT 10SM OVC038 16/08 A3019 RMK AO2 SLP252 T01610078 10167 20117 58024
KW29 - Stevensville/Bay Bridge Airport, Maryland
Distance from station: SE 26mi, 42km
Updated: Tue, 24-Apr-2018 2:15pm EDT
Mostly Cloudy
Mostly Cloudy
 Wind from ESE
Wind: ESE 15 mph , 24 km/h, Gust: 23 mph , 37 km/h
Temperature: 64°F , 18°C
Dew Point: 48°F , 9°C
Humidity: 56%
Barometer: 30.19 inHg , 1022.4 hPa
Clouds: Mostly Cloudy
Visibility: 7 miles , 11 km
Cloud details: Mostly Cloudy 4200 ft
2018/04/24 18:15 KW29 241815Z AUTO 12013G20KT 7SM BKN042 18/09 A3019 RMK AO2
KDMW - Carroll Co Regional Airport, Maryland
Distance from station: NNW 30mi, 48km
Updated: Tue, 24-Apr-2018 2:15pm EDT
Overcast
Overcast
 Wind from SE
Wind: SE 13 mph , 20 km/h, Gust: 21 mph , 33 km/h
Temperature: 63°F , 17°C
Dew Point: 48°F , 9°C
Humidity: 59%
Barometer: 30.19 inHg , 1022.4 hPa
Clouds: Overcast
Visibility: 10 miles , 16 km
Cloud details: Mostly Cloudy 3600 ft
Overcast 4900 ft
2018/04/24 18:15 KDMW 241815Z AUTO 14011G18KT 10SM BKN036 OVC049 17/09 A3019 RMK AO2
 
KADW - Andrews AFB, Maryland
Distance from station: SSW 30mi, 49km
Updated: Tue, 24-Apr-2018 1:56pm EDT
Overcast
Overcast
 Wind from ESE
Wind: ESE 14 mph , 22 km/h, Gust: 25 mph , 41 km/h
Temperature: 63°F , 17°C
Dew Point: 46°F , 8°C
Humidity: 56%
Barometer: 30.17 inHg , 1021.7 hPa
Clouds: Overcast
Visibility: 10 miles , 16 km
Cloud details: Overcast 5500 ft
2018/04/24 17:56 KADW 241756Z AUTO 11012G22KT 10SM OVC055 17/08 A3017 RMK AO2 PK WND 11026/16 SLP223 T01650082 10168 20118 57023 $
KAPG - Aberdeen/Phillip AAF, Maryland
Distance from station: ENE 32mi, 52km
Updated: Tue, 24-Apr-2018 1:58pm EDT
Overcast
Overcast
 Wind from ESE
Wind: ESE 16 mph , 26 km/h, Gust: 23 mph , 37 km/h
Temperature: 63°F , 17°C
Dew Point: 46°F , 8°C
Humidity: 56%
Barometer: 30.24 inHg , 1024 hPa
Clouds: Overcast
Visibility: 10 miles , 16 km
Cloud details: Partly Cloudy 5000 ft
Overcast 10000 ft
2018/04/24 17:58 KAPG 241758Z 11014G20KT 10SM SCT050 OVC100 17/08 A3024 RMK AO2A SLP243 T01720078 10176 20114 $
KDCA - Washington/Natl Airport, Washington D.C.
Distance from station: SW 32mi, 52km
Updated: Tue, 24-Apr-2018 1:52pm EDT
Overcast
Overcast
 Wind from ESE
Wind: ESE 17 mph , 28 km/h, Gust: 31 mph , 50 km/h
Temperature: 63°F , 17°C
Dew Point: 46°F , 8°C
Humidity: 56%
Barometer: 30.18 inHg , 1022 hPa
Clouds: Overcast
Visibility: 10 miles , 16 km
Cloud details: Few Clouds 4000 ft
Mostly Cloudy 5500 ft
Overcast 7000 ft
2018/04/24 17:52 KDCA 241752Z 12015G27KT 10SM FEW040 BKN055 OVC070 17/08 A3018 RMK AO2 PK WND 11027/1743 SLP220 T01720083 10172 20133 56024
 
KFDK - Frederick Municipal Airport, Maryland
Distance from station: WNW 38mi, 61km
Updated: Tue, 24-Apr-2018 1:47pm EDT
Overcast
Overcast
 Wind from SE
Wind: SE 12 mph , 19 km/h, Gust: 23 mph , 37 km/h
Temperature: 63°F , 17°C
Dew Point: 45°F , 7°C
Humidity: 52%
Barometer: 30.21 inHg , 1023 hPa
Clouds: Overcast
Visibility: 10 miles , 16 km
Cloud details: Mostly Cloudy 3900 ft
Mostly Cloudy 6000 ft
Overcast 11000 ft
2018/04/24 17:47 KFDK 241747Z 14010G20KT 10SM BKN039 BKN060 OVC110 17/07 A3021
KDAA - Fort Belvoir/Davison AAF, Virginia
Distance from station: SW 44mi, 71km
Updated: Tue, 24-Apr-2018 2:15pm EDT
Light drizzle, Mostly cloudy
Light drizzle, Mostly cloudy
 Wind from ESE
Wind: ESE 12 mph , 19 km/h, Gust: 18 mph , 30 km/h
Temperature: 61°F , 16°C
Dew Point: 48°F , 9°C
Humidity: 63%
Barometer: 30.16 inHg , 1021.3 hPa
Summary: Light Drizzle
Clouds: Mostly Cloudy
Visibility: 10 miles , 16 km
Cloud details: Few Clouds 4000 ft
Mostly Cloudy 4900 ft
2018/04/24 18:15 KDAA 241815Z AUTO 12010G16KT 10SM -DZ FEW040 BKN049 16/09 A3016 RMK AO2 RAE12DZB12E13DZB15 SLP216 $
KESN - Easton/Newnam Field Airport, Maryland
Distance from station: SE 45mi, 73km
Updated: Tue, 24-Apr-2018 12:50pm EDT
NOT Current
Overcast
Overcast
 Wind from SE
Wind: SE 14 mph , 22 km/h, Gust: 24 mph , 39 km/h
Temperature: 64°F , 18°C
Dew Point: 46°F , 8°C
Humidity: 52%
Barometer: 30.27 inHg , 1025.1 hPa
Clouds: Overcast
Visibility: 10 miles , 16 km
Cloud details: Overcast 20000 ft
2018/04/24 16:50 KESN 241650Z 14012G21KT 10SM OVC200 18/08 A3027
 
KIAD - Wash DC/Dulles Intl, Virginia
Distance from station: WSW 45mi, 73km
Updated: Tue, 24-Apr-2018 1:52pm EDT
Light rain, Overcast
Light rain, Overcast
 Wind from ESE
Wind: ESE 10 mph , 17 km/h, Gust: 23 mph , 37 km/h
Temperature: 61°F , 16°C
Dew Point: 50°F , 10°C
Humidity: 68%
Barometer: 30.17 inHg , 1021.7 hPa
Summary: Light Rain
Clouds: Overcast
Visibility: 10 miles , 16 km
Cloud details: Mostly Cloudy 3500 ft
Mostly Cloudy 5000 ft
Overcast 6000 ft
2018/04/24 17:52 KIAD 241752Z 12009G20KT 10SM -RA BKN035 BKN050 OVC060 16/10 A3017 RMK AO2 PK WND 13026/1732 RAB26 SLP214 P0000 60000 T01560100 10167 20128 58024
KJYO - Leesburg/Godfrey Field, Virginia
Distance from station: WSW 48mi, 77km
Updated: Tue, 24-Apr-2018 2:15pm EDT
Light rain, Overcast
Light rain, Overcast
 Wind from SE
Wind: SE 8 mph , 13 km/h
Temperature: 61°F , 16°C
Dew Point: 52°F , 11°C
Humidity: 72%
Barometer: 30.17 inHg , 1021.7 hPa
Summary: Light Rain
Clouds: Overcast
Visibility: 10 miles , 16 km
Cloud details: Mostly Cloudy 3500 ft
Overcast 4100 ft
2018/04/24 18:15 KJYO 241815Z AUTO 14007KT 10SM -RA BKN035 OVC041 16/11 A3017 RMK AO2
KTHV - York Airport, Pennsylvania
Distance from station: NNW 48mi, 77km
Updated: Tue, 24-Apr-2018 1:53pm EDT
Partly Cloudy
Partly Cloudy
 Wind from SE
Wind: SE 14 mph , 22 km/h, Gust: 23 mph , 37 km/h
Temperature: 61°F , 16°C
Dew Point: 46°F , 8°C
Humidity: 59%
Barometer: 30.21 inHg , 1023 hPa
Clouds: Partly Cloudy
Visibility: 10 miles , 16 km
Cloud details: Partly Cloudy 4000 ft
Partly Cloudy 5500 ft
2018/04/24 17:53 KTHV 241753Z AUTO 13012G20KT 10SM SCT040 SCT055 16/08 A3021 RMK AO2 SLP233 T01610083 10172 20111 58022
 
KRSP - Naval Support Fac Thurmont, Maryland, USA
Distance from station: NW 50mi, 81km
Updated: Tue, 24-Apr-2018 1:54pm EDT
Overcast
Overcast
 Wind from SSE
Wind: SSE 10 mph , 17 km/h, Gust: 21 mph , 33 km/h
Temperature: 54°F , 12°C
Dew Point: 45°F , 7°C
Humidity: 72%
Barometer: 30.18 inHg , 1022 hPa
Clouds: Overcast
Visibility: 10 miles , 16 km
Cloud details: Overcast 2400 ft
2018/04/24 17:54 KRSP 241754Z AUTO 16009G18KT 120V190 10SM OVC024 12/07 A3018 RMK AO2 SLP227 T01220067 10122 20083 58023 $
KRYT - Fountain Dale Airport, Pennsylvania
Distance from station: NW 52mi, 84km
Updated: Mon, 13-Nov-2017 7:53am EST
NOT Current
Mist, Overcast
Mist, Overcast
 Wind from calm
Wind: Calm
Temperature: 37°F , 3°C
Dew Point: 34°F , 1°C
Humidity: 87%
Barometer: 30.31 inHg , 1026.4 hPa
Summary: Mist
Clouds: Overcast
Visibility: 5 miles , 8 km
Cloud details: Overcast 700 ft
2017/11/13 12:53 KRYT 131253Z AUTO 00000KT 5SM BR OVC007 03/01 A3031 RMK AO2 SLP275 T00280011 TSNO $
KHEF - Manassas Municipal Airport, Virginia
Distance from station: SW 57mi, 91km
Updated: Tue, 24-Apr-2018 1:56pm EDT
Light rain, Overcast
Light rain, Overcast
 Wind from ESE
Wind: ESE 10 mph , 17 km/h
Temperature: 59°F , 15°C
Dew Point: 52°F , 11°C
Humidity: 77%
Barometer: 30.17 inHg , 1021.7 hPa
Summary: Light Rain
Clouds: Overcast
Visibility: 10 miles , 16 km
Cloud details: Few Clouds 3600 ft
Mostly Cloudy 4700 ft
Overcast 6000 ft
2018/04/24 17:56 KHEF 241756Z 11009KT 10SM -RA FEW036 BKN047 OVC060 15/11 A3017 RMK AO2 SLP226 6//// T01500111 10161 20128 56024 PNO $
 
KNYG - Quantico Marine Corps Air Fac, Virginia
Distance from station: SSW 60mi, 96km
Updated: Tue, 24-Apr-2018 1:56pm EDT
Light rain, Overcast
Light rain, Overcast
 Wind from SE
Wind: SE 9 mph , 15 km/h
Temperature: 61°F , 16°C
Dew Point: 54°F , 12°C
Humidity: 77%
Barometer: 30.17 inHg , 1021.7 hPa
Summary: Light Rain
Clouds: Overcast
Visibility: 10 miles , 16 km
Cloud details: Overcast 4200 ft
2018/04/24 17:56 KNYG 241756Z 14008KT 10SM -RA OVC042 16/12 A3017 RMK AO2 SLP218 P0002 60003 T01560117 10161 20133 56024
KCGE - Cambridge-Dorchester Reg Airport, Maryland
Distance from station: SE 60mi, 97km
Updated: Tue, 24-Apr-2018 2:15pm EDT
Clear
Clear
 Wind from ESE
Wind: ESE 21 mph , 33 km/h
Temperature: 63°F , 17°C
Dew Point: 48°F , 9°C
Humidity: 59%
Barometer: 30.18 inHg , 1022 hPa
Clouds: Clear
Visibility: 10 miles , 16 km
2018/04/24 18:15 KCGE 241815Z AUTO 12018KT 10SM CLR 17/09 A3018 RMK A01
K2W6 - St Marys Co Reg Airport, Maryland
Distance from station: SSE 64mi, 103km
Updated: Tue, 24-Apr-2018 2:17pm EDT
Overcast
Overcast
 Wind from E
Wind: E 9 mph , 15 km/h, Gust: 23 mph , 37 km/h
Temperature: 59°F , 15°C
Dew Point: 48°F , 9°C
Humidity: 68%
Barometer: 30.18 inHg , 1022 hPa
Clouds: Overcast
Visibility: 10 miles , 16 km
Cloud details: Partly Cloudy 3400 ft
Partly Cloudy 4200 ft
Overcast 5000 ft
2018/04/24 18:17 K2W6 241817Z AUTO 10008G20KT 070V130 10SM SCT034 SCT042 OVC050 15/09 A3018 RMK AO1
 
KHGR - Hagerstown Reg Airport, Maryland
Distance from station: WNW 64mi, 103km
Updated: Tue, 24-Apr-2018 1:53pm EDT
Overcast
Overcast
 Wind from ESE
Wind: ESE 9 mph , 15 km/h
Temperature: 61°F , 16°C
Dew Point: 46°F , 8°C
Humidity: 59%
Barometer: 30.17 inHg , 1021.7 hPa
Clouds: Overcast
Visibility: 10 miles , 16 km
Cloud details: Overcast 3800 ft
2018/04/24 17:53 KHGR 241753Z 11008KT 10SM OVC038 16/08 A3017 RMK AO2 SLP226 T01610078 10161 20122 58023
KLNS - Lancaster Airport, Pennsylvania
Distance from station: NNE 64mi, 104km
Updated: Tue, 24-Apr-2018 1:53pm EDT
Mostly Cloudy
Mostly Cloudy
 Wind from SSE
Wind: SSE 20 mph , 31 km/h, Gust: 24 mph , 39 km/h
Temperature: 63°F , 17°C
Dew Point: 46°F , 8°C
Humidity: 56%
Barometer: 30.23 inHg , 1023.7 hPa
Clouds: Mostly Cloudy
Visibility: 10 miles , 16 km
Cloud details: Partly Cloudy 4500 ft
Mostly Cloudy 5500 ft
2018/04/24 17:53 KLNS 241753Z 16017G21KT 10SM SCT045 BKN055 17/08 A3023 RMK AO2 PK WND 14028/1735 SLP238 T01720078 10178 20089 58021
KILG - New Castle Airport, Wilmington, Delaware
Distance from station: ENE 66mi, 106km
Updated: Tue, 24-Apr-2018 1:51pm EDT
Overcast
Overcast
 Wind from ESE
Wind: ESE 16 mph , 26 km/h
Temperature: 63°F , 17°C
Dew Point: 45°F , 7°C
Humidity: 52%
Barometer: 30.26 inHg , 1024.7 hPa
Clouds: Overcast
Visibility: 10 miles , 16 km
Cloud details: Mostly Cloudy 4700 ft
Overcast 6000 ft
2018/04/24 17:51 KILG 241751Z 12014KT 10SM BKN047 OVC060 17/07 A3026 RMK AO2 SLP247 T01720072 10178 20100 58021
 
KDOV - Dover Air Force Base, Delaware
Distance from station: E 66mi, 107km
Updated: Tue, 24-Apr-2018 1:56pm EDT
Mostly Cloudy
Mostly Cloudy
 Wind from E
Wind: E 13 mph , 20 km/h, Gust: 21 mph , 33 km/h
Temperature: 57°F , 14°C
Dew Point: 48°F , 9°C
Humidity: 72%
Barometer: 30.25 inHg , 1024.4 hPa
Clouds: Mostly Cloudy
Visibility: 10 miles , 16 km
Cloud details: Mostly Cloudy 5500 ft
Mostly Cloudy 13000 ft
Mostly Cloudy 15000 ft
Mostly Cloudy 19000 ft
2018/04/24 17:56 KDOV 241756Z AUTO 10011G18KT 10SM BKN055 BKN130 BKN150 BKN190 14/09 A3025 RMK AO2 SLP247 T01440090 10146 20123 57023 $
KMDT - Harrisburg Intl Airport, Middletown, Pennsylvania
Distance from station: N 67mi, 107km
Updated: Tue, 24-Apr-2018 1:56pm EDT
Overcast
Overcast
 Wind from SSE
Wind: SSE 16 mph , 26 km/h, Gust: 22 mph , 35 km/h
Temperature: 64°F , 18°C
Dew Point: 45°F , 7°C
Humidity: 49%
Barometer: 30.21 inHg , 1023 hPa
Clouds: Overcast
Visibility: 10 miles , 16 km
Cloud details: Mostly Cloudy 4300 ft
Overcast 12000 ft
2018/04/24 17:56 KMDT 241756Z 15014G19KT 10SM BKN043 OVC120 18/07 A3021 RMK AO2 SLP230 T01780072 10178 20100 58024
KMQS - Chester Co Carlson Airport, Coatesville, Pennsylvania
Distance from station: NE 68mi, 109km
Updated: Tue, 24-Apr-2018 2:15pm EDT
Mostly Cloudy
Mostly Cloudy
 Wind from SSE
Wind: SSE 12 mph , 19 km/h, Gust: 20 mph , 31 km/h
Temperature: 61°F , 16°C
Dew Point: 43°F , 6°C
Humidity: 52%
Barometer: 30.25 inHg , 1024.4 hPa
Clouds: Mostly Cloudy
Visibility: 10 miles , 16 km
Cloud details: Partly Cloudy 4200 ft
Partly Cloudy 4700 ft
Mostly Cloudy 5500 ft
2018/04/24 18:15 KMQS 241815Z AUTO 15010G17KT 120V210 10SM SCT042 SCT047 BKN055 16/06 A3025 RMK AO2
 
KCXY - Capital City Airport, Harrisburg, Pennsylvania
Distance from station: N 68mi, 110km
Updated: Tue, 24-Apr-2018 1:56pm EDT
Mostly Cloudy
Mostly Cloudy
 Wind from ESE
Wind: ESE 18 mph , 30 km/h
Temperature: 64°F , 18°C
Dew Point: 46°F , 8°C
Humidity: 52%
Barometer: 30.21 inHg , 1023 hPa
Clouds: Mostly Cloudy
Visibility: 10 miles , 16 km
Cloud details: Partly Cloudy 4700 ft
Mostly Cloudy 6000 ft
2018/04/24 17:56 KCXY 241756Z 11016KT 10SM SCT047 BKN060 18/08 A3021 RMK AO2 SLP232 T01830078 10189 20106 58023
KNHK - Patuxent River NAS, Maryland
Distance from station: SE 69mi, 111km
Updated: Tue, 24-Apr-2018 1:52pm EDT
Overcast
Overcast
 Wind from ESE
Wind: ESE 12 mph , 19 km/h
Temperature: 61°F , 16°C
Dew Point: 52°F , 11°C
Humidity: 72%
Barometer: 30.18 inHg , 1022 hPa
Clouds: Overcast
Visibility: 10 miles , 16 km
Cloud details: Mostly Cloudy 5500 ft
Overcast 9000 ft
2018/04/24 17:52 KNHK 241752Z 11010KT 10SM BKN055 OVC090 16/11 A3018 RMK AO2 SLP218 T01610106 10167 20139 56025
KMRB - Eastern WV Reg Airport/Shepherd Field, Martinsburg, West Virginia
Distance from station: W 70mi, 112km
Updated: Tue, 24-Apr-2018 1:53pm EDT
Light rain, Overcast
Light rain, Overcast
 Wind from ESE
Wind: ESE 7 mph , 11 km/h
Temperature: 57°F , 14°C
Dew Point: 48°F , 9°C
Humidity: 72%
Barometer: 30.15 inHg , 1021 hPa
Summary: Light Rain
Clouds: Overcast
Visibility: 6 miles , 10 km
Cloud details: Mostly Cloudy 3700 ft
Overcast 4800 ft
2018/04/24 17:53 KMRB 241753Z 11006KT 6SM -RA BKN037 OVC048 14/09 A3015 RMK AO2 SLP210 P0000 60004 T01440089 10144 20100 58026
 
KHWY - Warrenton-Fauquier Airport, Warrenton, Virginia
Distance from station: SW 71mi, 114km
Updated: Tue, 24-Apr-2018 2:15pm EDT
Light rain, Overcast
Light rain, Overcast
 Wind from E
Wind: E 13 mph , 20 km/h, Gust: 20 mph , 31 km/h
Temperature: 57°F , 14°C
Dew Point: 52°F , 11°C
Humidity: 82%
Barometer: 30.14 inHg , 1020.7 hPa
Summary: Light Rain
Clouds: Overcast
Visibility: 7 miles , 11 km
Cloud details: Partly Cloudy 3700 ft
Partly Cloudy 5000 ft
Overcast 7500 ft
2018/04/24 18:15 KHWY 241815Z AUTO 10011G17KT 7SM -RA SCT037 SCT050 OVC075 14/11 A3014 RMK AO2 P0001 T01410105
KRMN - Stafford Regional Airport, Virginia
Distance from station: SW 71mi, 114km
Updated: Tue, 24-Apr-2018 2:15pm EDT
Light rain, Overcast
Light rain, Overcast
 Wind from E
Wind: E 13 mph , 20 km/h, Gust: 18 mph , 30 km/h
Temperature: 57°F , 14°C
Dew Point: 57°F , 14°C
Humidity: 100%
Barometer: 30.18 inHg , 1022 hPa
Summary: Light Rain
Clouds: Overcast
Visibility: 7 miles , 11 km
Cloud details: Partly Cloudy 4200 ft
Mostly Cloudy 5000 ft
Overcast 7000 ft
2018/04/24 18:15 KRMN 241815Z AUTO 10011G16KT 7SM -RA SCT042 BKN050 OVC070 14/14 A3018 RMK AO2 T01360135
KNUI - Webster Naval, St Inigoes, Maryland
Distance from station: S 76mi, 123km
Updated: Tue, 24-Apr-2018 1:53pm EDT
Haze, Overcast
Haze, Overcast
 Wind from E
Wind: E 16 mph , 26 km/h, Gust: 24 mph , 39 km/h
Temperature: 61°F , 16°C
Dew Point: 48°F , 9°C
Humidity: 63%
Barometer: 30.16 inHg , 1021.3 hPa
Summary: Haze
Clouds: Overcast
Visibility: 6 miles , 10 km
Cloud details: Mostly Cloudy 5500 ft
Overcast 7500 ft
2018/04/24 17:53 KNUI 241753Z AUTO 10014G21KT 6SM HZ BKN055 OVC075 16/09 A3016 RMK AO2 RAB18E28 SLP212 P0000 60000 T01560094 10161 20128 56026
 
KEZF - Fredericksburg/Shan, Virginia
Distance from station: SSW 78mi, 126km
Updated: Tue, 24-Apr-2018 2:15pm EDT
Light rain, Overcast
Light rain, Overcast
 Wind from ENE
Wind: ENE 6 mph , 9 km/h
Temperature: 57°F , 14°C
Dew Point: 55°F , 13°C
Humidity: 94%
Barometer: 30.13 inHg , 1020.3 hPa
Summary: Light Rain
Clouds: Overcast
Visibility: 10 miles , 16 km
Cloud details: Mostly Cloudy 3000 ft
Mostly Cloudy 3800 ft
Overcast 4600 ft
2018/04/24 18:15 KEZF 241815Z AUTO 07005KT 10SM -RA BKN030 BKN038 OVC046 14/13 A3013 RMK AO2 P0001 T01360131
KOKV - Winchester Regional Airport, Virginia
Distance from station: W 78mi, 126km
Updated: Tue, 24-Apr-2018 2:15pm EDT
Overcast
Overcast
 Wind from E
Wind: E 8 mph , 13 km/h
Temperature: 54°F , 12°C
Dew Point: 50°F , 10°C
Humidity: 88%
Barometer: 30.15 inHg , 1021 hPa
Clouds: Overcast
Visibility: 10 miles , 16 km
Cloud details: Mostly Cloudy 3100 ft
Overcast 7000 ft
2018/04/24 18:15 KOKV 241815Z AUTO 09007KT 070V130 10SM BKN031 OVC070 12/10 A3015 RMK AO2
KCJR - Culpeper Regional Airport, Virginia
Distance from station: SW 79mi, 128km
Updated: Tue, 24-Apr-2018 2:15pm EDT
Rain, Overcast
Rain, Overcast
 Wind from E
Wind: E 6 mph , 9 km/h, Gust: 16 mph , 26 km/h
Temperature: 57°F , 14°C
Dew Point: 52°F , 11°C
Humidity: 82%
Barometer: 30.14 inHg , 1020.7 hPa
Summary: Rain
Clouds: Overcast
Visibility: 7 miles , 11 km
Cloud details: Partly Cloudy 1900 ft
Partly Cloudy 3200 ft
Overcast 7000 ft
2018/04/24 18:15 KCJR 241815Z AUTO 09005G14KT 7SM RA SCT019 SCT032 OVC070 14/11 A3014 RMK AO2 P0002 T01350112